sensor_id;sensor_type;location;lat;lon;timestamp;P1;durP1;ratioP1;P2;durP2;ratioP2
24631;SDS011;59977;48.782;9.190;2023-05-07T00:01:46;6.43;;;3.70;;
24631;SDS011;59977;48.782;9.190;2023-05-07T00:04:12;8.45;;;4.88;;
24631;SDS011;59977;48.782;9.190;2023-05-07T00:06:38;10.02;;;3.90;;
24631;SDS011;59977;48.782;9.190;2023-05-07T00:09:05;5.97;;;3.80;;
24631;SDS011;59977;48.782;9.190;2023-05-07T00:11:31;6.65;;;3.80;;
24631;SDS011;59977;48.782;9.190;2023-05-07T00:13:57;11.90;;;3.90;;
24631;SDS011;59977;48.782;9.190;2023-05-07T00:16:23;7.88;;;4.60;;
24631;SDS011;59977;48.782;9.190;2023-05-07T00:18:49;9.77;;;4.70;;
24631;SDS011;59977;48.782;9.190;2023-05-07T00:21:15;8.95;;;5.05;;
24631;SDS011;59977;48.782;9.190;2023-05-07T00:23:41;15.55;;;5.47;;
24631;SDS011;59977;48.782;9.190;2023-05-07T00:26:07;11.52;;;4.80;;
24631;SDS011;59977;48.782;9.190;2023-05-07T00:28:33;9.82;;;4.22;;
24631;SDS011;59977;48.782;9.190;2023-05-07T00:30:59;9.65;;;4.80;;
24631;SDS011;59977;48.782;9.190;2023-05-07T00:33:25;8.95;;;4.50;;
24631;SDS011;59977;48.782;9.190;2023-05-07T00:35:52;9.55;;;4.35;;
24631;SDS011;59977;48.782;9.190;2023-05-07T00:38:19;11.55;;;4.68;;
24631;SDS011;59977;48.782;9.190;2023-05-07T00:40:45;9.07;;;4.20;;
24631;SDS011;59977;48.782;9.190;2023-05-07T00:43:11;11.65;;;4.45;;
24631;SDS011;59977;48.782;9.190;2023-05-07T00:45:37;12.07;;;4.47;;
24631;SDS011;59977;48.782;9.190;2023-05-07T00:48:04;8.23;;;3.92;;
24631;SDS011;59977;48.782;9.190;2023-05-07T00:50:30;13.23;;;4.00;;
24631;SDS011;59977;48.782;9.190;2023-05-07T00:52:56;11.20;;;4.18;;
24631;SDS011;59977;48.782;9.190;2023-05-07T00:55:23;8.20;;;3.80;;
24631;SDS011;59977;48.782;9.190;2023-05-07T00:57:50;7.88;;;3.65;;
24631;SDS011;59977;48.782;9.190;2023-05-07T01:00:16;7.32;;;3.78;;
24631;SDS011;59977;48.782;9.190;2023-05-07T01:02:43;4.78;;;2.95;;
24631;SDS011;59977;48.782;9.190;2023-05-07T01:05:10;8.13;;;3.60;;
24631;SDS011;59977;48.782;9.190;2023-05-07T01:07:37;7.18;;;3.13;;
24631;SDS011;59977;48.782;9.190;2023-05-07T01:10:04;6.40;;;3.30;;
24631;SDS011;59977;48.782;9.190;2023-05-07T01:12:32;5.60;;;3.50;;
24631;SDS011;59977;48.782;9.190;2023-05-07T01:14:58;6.72;;;3.17;;
24631;SDS011;59977;48.782;9.190;2023-05-07T01:17:24;6.75;;;3.30;;
24631;SDS011;59977;48.782;9.190;2023-05-07T01:19:50;5.82;;;3.13;;
24631;SDS011;59977;48.782;9.190;2023-05-07T01:22:23;8.85;;;3.17;;
24631;SDS011;59977;48.782;9.190;2023-05-07T01:24:51;7.82;;;3.35;;
24631;SDS011;59977;48.782;9.190;2023-05-07T01:27:17;6.88;;;3.00;;
24631;SDS011;59977;48.782;9.190;2023-05-07T01:29:43;9.45;;;2.90;;
24631;SDS011;59977;48.782;9.190;2023-05-07T01:32:09;5.75;;;3.00;;
24631;SDS011;59977;48.782;9.190;2023-05-07T01:34:35;6.10;;;2.92;;
24631;SDS011;59977;48.782;9.190;2023-05-07T01:37:02;9.45;;;3.35;;
24631;SDS011;59977;48.782;9.190;2023-05-07T01:39:28;9.88;;;3.05;;
24631;SDS011;59977;48.782;9.190;2023-05-07T01:41:55;4.72;;;2.80;;
24631;SDS011;59977;48.782;9.190;2023-05-07T01:44:21;3.70;;;2.78;;
24631;SDS011;59977;48.782;9.190;2023-05-07T01:46:48;13.40;;;3.25;;
24631;SDS011;59977;48.782;9.190;2023-05-07T01:49:15;6.20;;;3.20;;
24631;SDS011;59977;48.782;9.190;2023-05-07T01:51:41;6.30;;;3.53;;
24631;SDS011;59977;48.782;9.190;2023-05-07T01:54:07;6.05;;;3.60;;
24631;SDS011;59977;48.782;9.190;2023-05-07T01:56:33;9.48;;;3.67;;
24631;SDS011;59977;48.782;9.190;2023-05-07T01:58:59;6.75;;;2.72;;
24631;SDS011;59977;48.782;9.190;2023-05-07T02:01:25;6.25;;;2.97;;
24631;SDS011;59977;48.782;9.190;2023-05-07T02:03:51;11.82;;;3.67;;
24631;SDS011;59977;48.782;9.190;2023-05-07T02:06:18;8.35;;;2.78;;
24631;SDS011;59977;48.782;9.190;2023-05-07T02:08:44;9.88;;;3.03;;
24631;SDS011;59977;48.782;9.190;2023-05-07T02:11:11;7.60;;;2.90;;
24631;SDS011;59977;48.782;9.190;2023-05-07T02:13:37;9.95;;;3.03;;
24631;SDS011;59977;48.782;9.190;2023-05-07T02:16:03;5.18;;;3.13;;
24631;SDS011;59977;48.782;9.190;2023-05-07T02:18:29;5.85;;;3.05;;
24631;SDS011;59977;48.782;9.190;2023-05-07T02:20:55;6.55;;;2.88;;
24631;SDS011;59977;48.782;9.190;2023-05-07T02:23:21;9.02;;;3.40;;
24631;SDS011;59977;48.782;9.190;2023-05-07T02:25:47;5.53;;;3.03;;
24631;SDS011;59977;48.782;9.190;2023-05-07T02:28:13;4.13;;;2.67;;
24631;SDS011;59977;48.782;9.190;2023-05-07T02:30:40;4.10;;;2.70;;
24631;SDS011;59977;48.782;9.190;2023-05-07T02:33:06;8.52;;;2.80;;
24631;SDS011;59977;48.782;9.190;2023-05-07T02:35:33;8.35;;;3.00;;
24631;SDS011;59977;48.782;9.190;2023-05-07T02:37:59;7.55;;;3.00;;
24631;SDS011;59977;48.782;9.190;2023-05-07T02:40:25;4.32;;;2.45;;
24631;SDS011;59977;48.782;9.190;2023-05-07T02:42:51;6.43;;;2.65;;
24631;SDS011;59977;48.782;9.190;2023-05-07T02:45:17;9.63;;;3.25;;
24631;SDS011;59977;48.782;9.190;2023-05-07T02:47:43;8.15;;;3.25;;
24631;SDS011;59977;48.782;9.190;2023-05-07T02:50:09;6.10;;;3.30;;
24631;SDS011;59977;48.782;9.190;2023-05-07T02:52:35;7.25;;;2.95;;
24631;SDS011;59977;48.782;9.190;2023-05-07T02:55:01;7.93;;;3.47;;
24631;SDS011;59977;48.782;9.190;2023-05-07T02:57:27;11.60;;;3.50;;
24631;SDS011;59977;48.782;9.190;2023-05-07T02:59:53;6.90;;;3.40;;
24631;SDS011;59977;48.782;9.190;2023-05-07T03:02:19;10.52;;;3.40;;
24631;SDS011;59977;48.782;9.190;2023-05-07T03:04:45;4.32;;;3.25;;
24631;SDS011;59977;48.782;9.190;2023-05-07T03:07:11;5.38;;;3.10;;
24631;SDS011;59977;48.782;9.190;2023-05-07T03:09:39;9.70;;;3.22;;
24631;SDS011;59977;48.782;9.190;2023-05-07T03:12:05;7.55;;;3.25;;
24631;SDS011;59977;48.782;9.190;2023-05-07T03:14:31;6.18;;;3.35;;
24631;SDS011;59977;48.782;9.190;2023-05-07T03:16:57;6.50;;;3.35;;
24631;SDS011;59977;48.782;9.190;2023-05-07T03:19:23;6.63;;;3.33;;
24631;SDS011;59977;48.782;9.190;2023-05-07T03:21:49;11.02;;;3.35;;
24631;SDS011;59977;48.782;9.190;2023-05-07T03:24:15;5.22;;;3.40;;
24631;SDS011;59977;48.782;9.190;2023-05-07T03:26:41;5.75;;;3.60;;
24631;SDS011;59977;48.782;9.190;2023-05-07T03:29:07;10.73;;;5.07;;
24631;SDS011;59977;48.782;9.190;2023-05-07T03:31:33;7.57;;;3.90;;
24631;SDS011;59977;48.782;9.190;2023-05-07T03:33:59;6.30;;;3.72;;
24631;SDS011;59977;48.782;9.190;2023-05-07T03:36:25;13.38;;;5.03;;
24631;SDS011;59977;48.782;9.190;2023-05-07T03:38:54;10.40;;;4.70;;
24631;SDS011;59977;48.782;9.190;2023-05-07T03:41:20;13.02;;;4.00;;
24631;SDS011;59977;48.782;9.190;2023-05-07T03:43:46;10.38;;;4.57;;
24631;SDS011;59977;48.782;9.190;2023-05-07T03:46:11;8.15;;;4.05;;
24631;SDS011;59977;48.782;9.190;2023-05-07T03:48:37;10.38;;;4.20;;
24631;SDS011;59977;48.782;9.190;2023-05-07T03:51:03;7.32;;;3.97;;
24631;SDS011;59977;48.782;9.190;2023-05-07T03:53:29;14.80;;;4.13;;
24631;SDS011;59977;48.782;9.190;2023-05-07T03:55:55;7.75;;;4.00;;
24631;SDS011;59977;48.782;9.190;2023-05-07T03:58:21;11.15;;;4.00;;
24631;SDS011;59977;48.782;9.190;2023-05-07T04:00:47;10.82;;;3.92;;
24631;SDS011;59977;48.782;9.190;2023-05-07T04:03:13;9.77;;;3.63;;
24631;SDS011;59977;48.782;9.190;2023-05-07T04:05:39;6.43;;;3.58;;
24631;SDS011;59977;48.782;9.190;2023-05-07T04:08:05;7.95;;;3.80;;
24631;SDS011;59977;48.782;9.190;2023-05-07T04:10:32;7.47;;;3.78;;
24631;SDS011;59977;48.782;9.190;2023-05-07T04:12:58;7.60;;;3.88;;
24631;SDS011;59977;48.782;9.190;2023-05-07T04:15:24;8.90;;;3.70;;
24631;SDS011;59977;48.782;9.190;2023-05-07T04:17:50;10.32;;;3.53;;
24631;SDS011;59977;48.782;9.190;2023-05-07T04:20:16;5.03;;;3.42;;
24631;SDS011;59977;48.782;9.190;2023-05-07T04:22:42;7.85;;;3.60;;
24631;SDS011;59977;48.782;9.190;2023-05-07T04:25:08;11.23;;;3.83;;
24631;SDS011;59977;48.782;9.190;2023-05-07T04:27:35;7.38;;;3.67;;
24631;SDS011;59977;48.782;9.190;2023-05-07T04:30:01;9.20;;;3.80;;
24631;SDS011;59977;48.782;9.190;2023-05-07T04:32:28;8.50;;;4.20;;
24631;SDS011;59977;48.782;9.190;2023-05-07T04:34:54;11.50;;;4.50;;
24631;SDS011;59977;48.782;9.190;2023-05-07T04:37:20;7.28;;;4.28;;
24631;SDS011;59977;48.782;9.190;2023-05-07T04:39:47;12.43;;;4.68;;
24631;SDS011;59977;48.782;9.190;2023-05-07T04:42:16;9.27;;;4.78;;
24631;SDS011;59977;48.782;9.190;2023-05-07T04:44:43;9.98;;;4.10;;
24631;SDS011;59977;48.782;9.190;2023-05-07T04:47:09;7.95;;;3.70;;
24631;SDS011;59977;48.782;9.190;2023-05-07T04:49:35;10.85;;;4.38;;
24631;SDS011;59977;48.782;9.190;2023-05-07T04:52:01;8.95;;;3.67;;
24631;SDS011;59977;48.782;9.190;2023-05-07T04:54:28;6.90;;;3.30;;
24631;SDS011;59977;48.782;9.190;2023-05-07T04:56:54;8.15;;;3.90;;
24631;SDS011;59977;48.782;9.190;2023-05-07T04:59:20;6.50;;;3.20;;
24631;SDS011;59977;48.782;9.190;2023-05-07T05:01:46;8.23;;;3.70;;
24631;SDS011;59977;48.782;9.190;2023-05-07T05:04:12;7.95;;;4.03;;
24631;SDS011;59977;48.782;9.190;2023-05-07T05:06:39;14.27;;;4.10;;
24631;SDS011;59977;48.782;9.190;2023-05-07T05:09:05;7.05;;;4.32;;
24631;SDS011;59977;48.782;9.190;2023-05-07T05:11:31;8.70;;;4.40;;
24631;SDS011;59977;48.782;9.190;2023-05-07T05:13:58;9.57;;;4.40;;
24631;SDS011;59977;48.782;9.190;2023-05-07T05:16:24;10.10;;;3.90;;
24631;SDS011;59977;48.782;9.190;2023-05-07T05:18:50;8.27;;;4.20;;
24631;SDS011;59977;48.782;9.190;2023-05-07T05:21:17;6.97;;;4.20;;
24631;SDS011;59977;48.782;9.190;2023-05-07T05:23:43;7.72;;;4.70;;
24631;SDS011;59977;48.782;9.190;2023-05-07T05:26:09;10.20;;;4.65;;
24631;SDS011;59977;48.782;9.190;2023-05-07T05:28:35;14.65;;;5.43;;
24631;SDS011;59977;48.782;9.190;2023-05-07T05:31:01;11.55;;;4.78;;
24631;SDS011;59977;48.782;9.190;2023-05-07T05:33:27;11.68;;;5.18;;
24631;SDS011;59977;48.782;9.190;2023-05-07T05:35:53;11.00;;;4.57;;
24631;SDS011;59977;48.782;9.190;2023-05-07T05:38:19;11.80;;;4.45;;
24631;SDS011;59977;48.782;9.190;2023-05-07T05:40:46;18.65;;;4.95;;
24631;SDS011;59977;48.782;9.190;2023-05-07T05:43:12;9.88;;;4.50;;
24631;SDS011;59977;48.782;9.190;2023-05-07T05:45:38;9.13;;;3.95;;
24631;SDS011;59977;48.782;9.190;2023-05-07T05:48:04;10.82;;;4.18;;
24631;SDS011;59977;48.782;9.190;2023-05-07T05:50:30;6.95;;;4.10;;
24631;SDS011;59977;48.782;9.190;2023-05-07T05:52:56;9.63;;;4.15;;
24631;SDS011;59977;48.782;9.190;2023-05-07T05:55:22;11.13;;;4.40;;
24631;SDS011;59977;48.782;9.190;2023-05-07T05:57:49;11.35;;;4.43;;
24631;SDS011;59977;48.782;9.190;2023-05-07T06:00:15;10.20;;;4.30;;
24631;SDS011;59977;48.782;9.190;2023-05-07T06:02:41;8.88;;;4.80;;
24631;SDS011;59977;48.782;9.190;2023-05-07T06:05:07;6.90;;;4.38;;
24631;SDS011;59977;48.782;9.190;2023-05-07T06:07:34;9.05;;;4.72;;
24631;SDS011;59977;48.782;9.190;2023-05-07T06:10:00;8.18;;;4.35;;
24631;SDS011;59977;48.782;9.190;2023-05-07T06:12:26;11.73;;;4.95;;
24631;SDS011;59977;48.782;9.190;2023-05-07T06:14:52;14.80;;;4.60;;
24631;SDS011;59977;48.782;9.190;2023-05-07T06:17:18;7.07;;;4.85;;
24631;SDS011;59977;48.782;9.190;2023-05-07T06:19:44;8.30;;;4.70;;
24631;SDS011;59977;48.782;9.190;2023-05-07T06:22:10;11.63;;;4.93;;
24631;SDS011;59977;48.782;9.190;2023-05-07T06:24:36;9.93;;;5.07;;
24631;SDS011;59977;48.782;9.190;2023-05-07T06:27:01;10.68;;;5.03;;
24631;SDS011;59977;48.782;9.190;2023-05-07T06:29:28;13.05;;;4.90;;
24631;SDS011;59977;48.782;9.190;2023-05-07T06:32:05;14.90;;;4.75;;
24631;SDS011;59977;48.782;9.190;2023-05-07T06:34:38;11.48;;;4.90;;
24631;SDS011;59977;48.782;9.190;2023-05-07T06:37:04;11.60;;;4.82;;
24631;SDS011;59977;48.782;9.190;2023-05-07T06:39:30;9.57;;;4.85;;
24631;SDS011;59977;48.782;9.190;2023-05-07T06:41:56;7.50;;;5.05;;
24631;SDS011;59977;48.782;9.190;2023-05-07T06:44:22;10.50;;;5.57;;
24631;SDS011;59977;48.782;9.190;2023-05-07T06:46:48;10.60;;;5.22;;
24631;SDS011;59977;48.782;9.190;2023-05-07T06:49:14;7.63;;;4.88;;
24631;SDS011;59977;48.782;9.190;2023-05-07T06:51:40;7.05;;;5.10;;
24631;SDS011;59977;48.782;9.190;2023-05-07T06:54:06;13.07;;;5.05;;
24631;SDS011;59977;48.782;9.190;2023-05-07T06:56:33;10.73;;;5.28;;
24631;SDS011;59977;48.782;9.190;2023-05-07T06:59:00;10.35;;;5.25;;
24631;SDS011;59977;48.782;9.190;2023-05-07T07:01:26;11.05;;;5.05;;
24631;SDS011;59977;48.782;9.190;2023-05-07T07:03:52;13.98;;;5.18;;
24631;SDS011;59977;48.782;9.190;2023-05-07T07:06:18;10.40;;;5.05;;
24631;SDS011;59977;48.782;9.190;2023-05-07T07:08:44;9.35;;;4.85;;
24631;SDS011;59977;48.782;9.190;2023-05-07T07:11:10;9.15;;;4.63;;
24631;SDS011;59977;48.782;9.190;2023-05-07T07:13:36;7.95;;;4.88;;
24631;SDS011;59977;48.782;9.190;2023-05-07T07:16:02;9.32;;;4.38;;
24631;SDS011;59977;48.782;9.190;2023-05-07T07:18:28;11.07;;;4.47;;
24631;SDS011;59977;48.782;9.190;2023-05-07T07:20:54;10.85;;;4.72;;
24631;SDS011;59977;48.782;9.190;2023-05-07T07:23:20;8.07;;;4.43;;
24631;SDS011;59977;48.782;9.190;2023-05-07T07:25:46;8.43;;;4.10;;
24631;SDS011;59977;48.782;9.190;2023-05-07T07:28:12;6.65;;;4.07;;
24631;SDS011;59977;48.782;9.190;2023-05-07T07:30:38;6.25;;;4.10;;
24631;SDS011;59977;48.782;9.190;2023-05-07T07:33:04;9.30;;;4.30;;
24631;SDS011;59977;48.782;9.190;2023-05-07T07:35:33;7.15;;;3.88;;
24631;SDS011;59977;48.782;9.190;2023-05-07T07:37:59;13.88;;;4.18;;
24631;SDS011;59977;48.782;9.190;2023-05-07T07:40:26;7.38;;;4.10;;
24631;SDS011;59977;48.782;9.190;2023-05-07T07:42:52;9.98;;;3.95;;
24631;SDS011;59977;48.782;9.190;2023-05-07T07:45:18;9.65;;;4.00;;
24631;SDS011;59977;48.782;9.190;2023-05-07T07:47:44;7.05;;;3.80;;
24631;SDS011;59977;48.782;9.190;2023-05-07T07:50:11;8.15;;;3.30;;
24631;SDS011;59977;48.782;9.190;2023-05-07T07:52:37;10.35;;;3.55;;
24631;SDS011;59977;48.782;9.190;2023-05-07T07:55:03;7.90;;;3.70;;
24631;SDS011;59977;48.782;9.190;2023-05-07T07:57:29;8.05;;;3.85;;
24631;SDS011;59977;48.782;9.190;2023-05-07T07:59:56;6.50;;;3.10;;
24631;SDS011;59977;48.782;9.190;2023-05-07T08:02:22;7.82;;;3.30;;
24631;SDS011;59977;48.782;9.190;2023-05-07T08:04:48;6.20;;;2.75;;
24631;SDS011;59977;48.782;9.190;2023-05-07T08:07:14;6.28;;;2.72;;
24631;SDS011;59977;48.782;9.190;2023-05-07T08:09:40;4.07;;;2.40;;
24631;SDS011;59977;48.782;9.190;2023-05-07T08:12:06;6.22;;;2.67;;
24631;SDS011;59977;48.782;9.190;2023-05-07T08:14:32;7.38;;;2.85;;
24631;SDS011;59977;48.782;9.190;2023-05-07T08:16:58;6.72;;;2.78;;
24631;SDS011;59977;48.782;9.190;2023-05-07T08:19:24;8.73;;;3.00;;
24631;SDS011;59977;48.782;9.190;2023-05-07T08:21:50;5.50;;;2.65;;
24631;SDS011;59977;48.782;9.190;2023-05-07T08:24:16;7.90;;;2.78;;
24631;SDS011;59977;48.782;9.190;2023-05-07T08:26:43;4.78;;;2.58;;
24631;SDS011;59977;48.782;9.190;2023-05-07T08:29:09;10.65;;;2.40;;
24631;SDS011;59977;48.782;9.190;2023-05-07T08:31:35;4.68;;;2.30;;
24631;SDS011;59977;48.782;9.190;2023-05-07T08:34:01;7.00;;;2.40;;
24631;SDS011;59977;48.782;9.190;2023-05-07T08:36:27;7.50;;;2.63;;
24631;SDS011;59977;48.782;9.190;2023-05-07T08:38:53;4.97;;;2.30;;
24631;SDS011;59977;48.782;9.190;2023-05-07T08:41:20;3.97;;;2.17;;
24631;SDS011;59977;48.782;9.190;2023-05-07T08:43:46;6.10;;;2.38;;
24631;SDS011;59977;48.782;9.190;2023-05-07T08:46:16;3.65;;;2.20;;
24631;SDS011;59977;48.782;9.190;2023-05-07T08:48:44;4.97;;;1.80;;
24631;SDS011;59977;48.782;9.190;2023-05-07T08:51:12;5.00;;;2.30;;
24631;SDS011;59977;48.782;9.190;2023-05-07T08:53:40;2.97;;;1.92;;
24631;SDS011;59977;48.782;9.190;2023-05-07T08:56:07;2.75;;;1.92;;
24631;SDS011;59977;48.782;9.190;2023-05-07T08:58:33;2.78;;;1.90;;
24631;SDS011;59977;48.782;9.190;2023-05-07T09:01:00;6.05;;;2.28;;
24631;SDS011;59977;48.782;9.190;2023-05-07T09:03:30;3.80;;;2.20;;
24631;SDS011;59977;48.782;9.190;2023-05-07T09:05:56;3.50;;;1.90;;
24631;SDS011;59977;48.782;9.190;2023-05-07T09:08:24;7.68;;;1.98;;
24631;SDS011;59977;48.782;9.190;2023-05-07T09:10:51;5.63;;;2.30;;
24631;SDS011;59977;48.782;9.190;2023-05-07T09:13:17;4.45;;;1.88;;
24631;SDS011;59977;48.782;9.190;2023-05-07T09:15:43;3.35;;;1.80;;
24631;SDS011;59977;48.782;9.190;2023-05-07T09:18:09;7.05;;;2.10;;
24631;SDS011;59977;48.782;9.190;2023-05-07T09:20:38;2.78;;;1.80;;
24631;SDS011;59977;48.782;9.190;2023-05-07T09:23:05;4.85;;;1.90;;
24631;SDS011;59977;48.782;9.190;2023-05-07T09:25:32;3.45;;;1.80;;
24631;SDS011;59977;48.782;9.190;2023-05-07T09:28:02;3.30;;;1.73;;
24631;SDS011;59977;48.782;9.190;2023-05-07T09:30:32;4.65;;;1.70;;
24631;SDS011;59977;48.782;9.190;2023-05-07T09:32:59;3.80;;;1.48;;
24631;SDS011;59977;48.782;9.190;2023-05-07T09:35:26;4.55;;;1.63;;
24631;SDS011;59977;48.782;9.190;2023-05-07T09:37:56;3.08;;;1.70;;
24631;SDS011;59977;48.782;9.190;2023-05-07T09:40:23;3.80;;;1.45;;
24631;SDS011;59977;48.782;9.190;2023-05-07T09:42:50;3.47;;;1.90;;
24631;SDS011;59977;48.782;9.190;2023-05-07T09:45:29;6.22;;;1.80;;
24631;SDS011;59977;48.782;9.190;2023-05-07T09:47:56;3.30;;;1.67;;
24631;SDS011;59977;48.782;9.190;2023-05-07T09:51:09;7.00;;;1.67;;
24631;SDS011;59977;48.782;9.190;2023-05-07T09:53:17;3.83;;;1.80;;
24631;SDS011;59977;48.782;9.190;2023-05-07T09:55:43;4.13;;;1.50;;
24631;SDS011;59977;48.782;9.190;2023-05-07T09:58:09;2.92;;;1.65;;
24631;SDS011;59977;48.782;9.190;2023-05-07T10:00:37;2.60;;;1.70;;
24631;SDS011;59977;48.782;9.190;2023-05-07T10:03:05;8.73;;;1.95;;
24631;SDS011;59977;48.782;9.190;2023-05-07T10:05:33;3.13;;;1.50;;
24631;SDS011;59977;48.782;9.190;2023-05-07T10:08:00;2.47;;;1.35;;
24631;SDS011;59977;48.782;9.190;2023-05-07T10:10:26;2.72;;;1.70;;
24631;SDS011;59977;48.782;9.190;2023-05-07T10:12:54;9.68;;;1.70;;
24631;SDS011;59977;48.782;9.190;2023-05-07T10:15:20;3.75;;;1.60;;
24631;SDS011;59977;48.782;9.190;2023-05-07T10:17:46;5.38;;;1.65;;
24631;SDS011;59977;48.782;9.190;2023-05-07T10:20:14;4.00;;;1.80;;
24631;SDS011;59977;48.782;9.190;2023-05-07T10:22:41;3.63;;;1.70;;
24631;SDS011;59977;48.782;9.190;2023-05-07T10:25:14;7.13;;;2.28;;
24631;SDS011;59977;48.782;9.190;2023-05-07T10:27:43;2.20;;;1.48;;
24631;SDS011;59977;48.782;9.190;2023-05-07T10:32:47;6.95;;;1.77;;
24631;SDS011;59977;48.782;9.190;2023-05-07T10:35:26;6.85;;;1.60;;
24631;SDS011;59977;48.782;9.190;2023-05-07T10:37:56;3.90;;;2.00;;
24631;SDS011;59977;48.782;9.190;2023-05-07T10:40:22;7.65;;;2.03;;
24631;SDS011;59977;48.782;9.190;2023-05-07T10:43:00;2.65;;;1.50;;
24631;SDS011;59977;48.782;9.190;2023-05-07T10:45:29;6.93;;;1.80;;
24631;SDS011;59977;48.782;9.190;2023-05-07T10:50:36;4.00;;;1.70;;
24631;SDS011;59977;48.782;9.190;2023-05-07T10:55:47;3.30;;;1.55;;
24631;SDS011;59977;48.782;9.190;2023-05-07T11:00:58;5.30;;;1.60;;
24631;SDS011;59977;48.782;9.190;2023-05-07T11:03:25;3.70;;;1.63;;
24631;SDS011;59977;48.782;9.190;2023-05-07T11:11:17;4.25;;;1.40;;
24631;SDS011;59977;48.782;9.190;2023-05-07T11:13:47;4.03;;;1.60;;
24631;SDS011;59977;48.782;9.190;2023-05-07T11:16:20;3.90;;;1.83;;
24631;SDS011;59977;48.782;9.190;2023-05-07T11:18:48;4.72;;;1.70;;
24631;SDS011;59977;48.782;9.190;2023-05-07T11:21:37;4.45;;;1.50;;
24631;SDS011;59977;48.782;9.190;2023-05-07T11:24:12;5.07;;;1.90;;
24631;SDS011;59977;48.782;9.190;2023-05-07T11:26:44;5.47;;;1.55;;
24631;SDS011;59977;48.782;9.190;2023-05-07T11:29:19;5.03;;;1.80;;
24631;SDS011;59977;48.782;9.190;2023-05-07T11:31:52;5.32;;;1.77;;
24631;SDS011;59977;48.782;9.190;2023-05-07T11:34:22;2.92;;;1.60;;
24631;SDS011;59977;48.782;9.190;2023-05-07T11:36:49;6.78;;;2.10;;
24631;SDS011;59977;48.782;9.190;2023-05-07T11:39:24;4.82;;;1.83;;
24631;SDS011;59977;48.782;9.190;2023-05-07T11:41:58;7.38;;;1.60;;
24631;SDS011;59977;48.782;9.190;2023-05-07T11:44:24;4.90;;;2.05;;
24631;SDS011;59977;48.782;9.190;2023-05-07T11:46:50;7.88;;;2.20;;
24631;SDS011;59977;48.782;9.190;2023-05-07T11:49:17;3.88;;;1.90;;
24631;SDS011;59977;48.782;9.190;2023-05-07T11:51:43;3.92;;;1.90;;
24631;SDS011;59977;48.782;9.190;2023-05-07T11:54:11;2.95;;;1.75;;
24631;SDS011;59977;48.782;9.190;2023-05-07T11:56:38;8.52;;;2.17;;
24631;SDS011;59977;48.782;9.190;2023-05-07T11:59:04;6.10;;;2.17;;
24631;SDS011;59977;48.782;9.190;2023-05-07T12:01:31;5.15;;;1.80;;
24631;SDS011;59977;48.782;9.190;2023-05-07T12:03:56;3.38;;;1.98;;
24631;SDS011;59977;48.782;9.190;2023-05-07T12:06:22;1.95;;;1.65;;
24631;SDS011;59977;48.782;9.190;2023-05-07T12:08:48;4.75;;;2.03;;
24631;SDS011;59977;48.782;9.190;2023-05-07T12:11:15;4.68;;;1.88;;
24631;SDS011;59977;48.782;9.190;2023-05-07T12:13:43;5.50;;;2.38;;
24631;SDS011;59977;48.782;9.190;2023-05-07T12:16:21;4.03;;;2.03;;
24631;SDS011;59977;48.782;9.190;2023-05-07T12:18:47;6.07;;;2.00;;
24631;SDS011;59977;48.782;9.190;2023-05-07T12:21:14;9.20;;;2.33;;
24631;SDS011;59977;48.782;9.190;2023-05-07T12:23:42;36.30;;;4.55;;
24631;SDS011;59977;48.782;9.190;2023-05-07T12:26:09;22.98;;;3.90;;
24631;SDS011;59977;48.782;9.190;2023-05-07T12:28:36;29.95;;;4.05;;
24631;SDS011;59977;48.782;9.190;2023-05-07T12:31:03;15.50;;;3.75;;
24631;SDS011;59977;48.782;9.190;2023-05-07T12:33:30;11.38;;;4.30;;
24631;SDS011;59977;48.782;9.190;2023-05-07T12:35:57;8.38;;;3.30;;
24631;SDS011;59977;48.782;9.190;2023-05-07T12:38:23;18.70;;;4.03;;
24631;SDS011;59977;48.782;9.190;2023-05-07T12:40:50;18.65;;;4.28;;
24631;SDS011;59977;48.782;9.190;2023-05-07T12:43:19;8.90;;;3.38;;
24631;SDS011;59977;48.782;9.190;2023-05-07T12:45:55;9.88;;;3.55;;
24631;SDS011;59977;48.782;9.190;2023-05-07T12:48:23;16.13;;;4.40;;
24631;SDS011;59977;48.782;9.190;2023-05-07T12:50:52;12.48;;;4.60;;
24631;SDS011;59977;48.782;9.190;2023-05-07T12:53:23;10.93;;;3.95;;
24631;SDS011;59977;48.782;9.190;2023-05-07T12:55:53;10.65;;;2.80;;
24631;SDS011;59977;48.782;9.190;2023-05-07T12:58:21;13.40;;;1.98;;
24631;SDS011;59977;48.782;9.190;2023-05-07T13:00:53;18.35;;;1.70;;
24631;SDS011;59977;48.782;9.190;2023-05-07T13:03:23;9.18;;;2.58;;
24631;SDS011;59977;48.782;9.190;2023-05-07T13:06:01;9.50;;;2.00;;
24631;SDS011;59977;48.782;9.190;2023-05-07T13:08:34;9.77;;;2.97;;
24631;SDS011;59977;48.782;9.190;2023-05-07T13:11:03;13.93;;;3.05;;
24631;SDS011;59977;48.782;9.190;2023-05-07T13:13:32;13.98;;;2.45;;
24631;SDS011;59977;48.782;9.190;2023-05-07T13:15:58;9.82;;;2.70;;
24631;SDS011;59977;48.782;9.190;2023-05-07T13:18:25;10.82;;;1.95;;
24631;SDS011;59977;48.782;9.190;2023-05-07T13:20:51;4.00;;;1.63;;
24631;SDS011;59977;48.782;9.190;2023-05-07T13:23:17;5.93;;;1.92;;
24631;SDS011;59977;48.782;9.190;2023-05-07T13:25:43;9.75;;;2.45;;
24631;SDS011;59977;48.782;9.190;2023-05-07T13:28:09;4.90;;;1.60;;
24631;SDS011;59977;48.782;9.190;2023-05-07T13:30:35;5.32;;;1.63;;
24631;SDS011;59977;48.782;9.190;2023-05-07T13:33:01;4.05;;;1.85;;
24631;SDS011;59977;48.782;9.190;2023-05-07T13:35:27;9.27;;;1.77;;
24631;SDS011;59977;48.782;9.190;2023-05-07T13:37:53;11.02;;;2.42;;
24631;SDS011;59977;48.782;9.190;2023-05-07T13:40:21;8.40;;;2.17;;
24631;SDS011;59977;48.782;9.190;2023-05-07T13:42:47;8.88;;;2.30;;
24631;SDS011;59977;48.782;9.190;2023-05-07T13:45:13;7.28;;;2.42;;
24631;SDS011;59977;48.782;9.190;2023-05-07T13:47:42;4.55;;;1.85;;
24631;SDS011;59977;48.782;9.190;2023-05-07T13:50:09;5.05;;;1.30;;
24631;SDS011;59977;48.782;9.190;2023-05-07T13:52:36;3.83;;;1.35;;
24631;SDS011;59977;48.782;9.190;2023-05-07T13:55:02;2.75;;;1.85;;
24631;SDS011;59977;48.782;9.190;2023-05-07T13:57:29;5.57;;;1.90;;
24631;SDS011;59977;48.782;9.190;2023-05-07T13:59:55;3.45;;;1.42;;
24631;SDS011;59977;48.782;9.190;2023-05-07T14:02:21;3.88;;;1.38;;
24631;SDS011;59977;48.782;9.190;2023-05-07T14:04:46;7.53;;;1.48;;
24631;SDS011;59977;48.782;9.190;2023-05-07T14:07:12;5.03;;;1.27;;
24631;SDS011;59977;48.782;9.190;2023-05-07T14:09:38;4.30;;;1.50;;
24631;SDS011;59977;48.782;9.190;2023-05-07T14:12:05;5.22;;;2.05;;
24631;SDS011;59977;48.782;9.190;2023-05-07T14:14:30;4.05;;;1.58;;
24631;SDS011;59977;48.782;9.190;2023-05-07T14:16:56;11.35;;;2.53;;
24631;SDS011;59977;48.782;9.190;2023-05-07T14:19:22;7.50;;;2.13;;
24631;SDS011;59977;48.782;9.190;2023-05-07T14:21:48;5.57;;;1.67;;
24631;SDS011;59977;48.782;9.190;2023-05-07T14:24:15;5.63;;;2.30;;
24631;SDS011;59977;48.782;9.190;2023-05-07T14:26:41;5.75;;;2.00;;
24631;SDS011;59977;48.782;9.190;2023-05-07T14:29:07;5.10;;;1.90;;
24631;SDS011;59977;48.782;9.190;2023-05-07T14:31:32;32.05;;;3.53;;
24631;SDS011;59977;48.782;9.190;2023-05-07T14:33:59;12.07;;;2.10;;
24631;SDS011;59977;48.782;9.190;2023-05-07T14:36:25;10.95;;;2.25;;
24631;SDS011;59977;48.782;9.190;2023-05-07T14:38:51;11.90;;;2.33;;
24631;SDS011;59977;48.782;9.190;2023-05-07T14:41:18;11.73;;;2.45;;
24631;SDS011;59977;48.782;9.190;2023-05-07T14:43:45;9.45;;;2.88;;
24631;SDS011;59977;48.782;9.190;2023-05-07T14:46:15;21.00;;;3.10;;
24631;SDS011;59977;48.782;9.190;2023-05-07T14:48:41;10.48;;;2.90;;
24631;SDS011;59977;48.782;9.190;2023-05-07T14:51:07;8.77;;;2.47;;
24631;SDS011;59977;48.782;9.190;2023-05-07T14:53:33;7.78;;;2.97;;
24631;SDS011;59977;48.782;9.190;2023-05-07T14:55:59;12.25;;;3.22;;
24631;SDS011;59977;48.782;9.190;2023-05-07T14:58:25;5.72;;;3.20;;
24631;SDS011;59977;48.782;9.190;2023-05-07T15:00:51;8.90;;;3.63;;